sensor_id;sensor_type;location;lat;lon;timestamp;P1;durP1;ratioP1;P2;durP2;ratioP2
15814;SDS011;8008;50.024;8.172;2023-03-23T04:01:10;1.65;;;1.50;;
15814;SDS011;8008;50.024;8.172;2023-03-23T04:03:39;2.05;;;1.60;;
15814;SDS011;8008;50.024;8.172;2023-03-23T04:06:32;2.20;;;1.42;;
15814;SDS011;8008;50.024;8.172;2023-03-23T04:09:02;1.45;;;1.33;;
15814;SDS011;8008;50.024;8.172;2023-03-23T04:11:34;3.10;;;1.70;;
15814;SDS011;8008;50.024;8.172;2023-03-23T04:14:19;2.03;;;1.50;;
15814;SDS011;8008;50.024;8.172;2023-03-23T04:16:48;3.08;;;1.45;;
15814;SDS011;8008;50.024;8.172;2023-03-23T04:19:23;1.88;;;1.45;;
15814;SDS011;8008;50.024;8.172;2023-03-23T04:21:50;1.77;;;1.25;;
15814;SDS011;8008;50.024;8.172;2023-03-23T04:24:17;2.65;;;1.85;;
15814;SDS011;8008;50.024;8.172;2023-03-23T04:26:46;2.47;;;1.60;;
15814;SDS011;8008;50.024;8.172;2023-03-23T04:29:21;2.30;;;1.35;;
15814;SDS011;8008;50.024;8.172;2023-03-23T04:32:09;1.40;;;1.30;;
15814;SDS011;8008;50.024;8.172;2023-03-23T04:34:41;2.17;;;1.70;;
15814;SDS011;8008;50.024;8.172;2023-03-23T04:37:09;2.70;;;1.38;;
15814;SDS011;8008;50.024;8.172;2023-03-23T04:39:38;1.98;;;1.55;;
15814;SDS011;8008;50.024;8.172;2023-03-23T04:42:07;3.50;;;1.75;;
15814;SDS011;8008;50.024;8.172;2023-03-23T04:44:54;3.13;;;1.60;;
15814;SDS011;8008;50.024;8.172;2023-03-23T04:47:32;2.45;;;1.80;;
15814;SDS011;8008;50.024;8.172;2023-03-23T04:50:10;2.72;;;1.70;;
15814;SDS011;8008;50.024;8.172;2023-03-23T04:52:40;2.55;;;1.40;;
15814;SDS011;8008;50.024;8.172;2023-03-23T04:55:11;3.10;;;1.60;;
15814;SDS011;8008;50.024;8.172;2023-03-23T04:57:42;5.35;;;2.13;;
15814;SDS011;8008;50.024;8.172;2023-03-23T05:00:36;2.53;;;1.50;;
15814;SDS011;8008;50.024;8.172;2023-03-23T05:03:05;1.95;;;1.60;;
15814;SDS011;8008;50.024;8.172;2023-03-23T05:05:33;2.92;;;1.85;;
15814;SDS011;8008;50.024;8.172;2023-03-23T05:08:05;3.25;;;2.05;;
15814;SDS011;8008;50.024;8.172;2023-03-23T05:10:35;3.05;;;1.98;;
15814;SDS011;8008;50.024;8.172;2023-03-23T05:13:07;3.55;;;1.77;;
15814;SDS011;8008;50.024;8.172;2023-03-23T05:15:34;5.35;;;2.00;;
15814;SDS011;8008;50.024;8.172;2023-03-23T05:18:03;3.60;;;1.98;;
15814;SDS011;8008;50.024;8.172;2023-03-23T05:20:32;3.50;;;2.05;;
15814;SDS011;8008;50.024;8.172;2023-03-23T05:23:07;3.17;;;2.05;;
15814;SDS011;8008;50.024;8.172;2023-03-23T05:25:35;3.78;;;2.00;;
15814;SDS011;8008;50.024;8.172;2023-03-23T05:28:17;3.22;;;1.95;;
15814;SDS011;8008;50.024;8.172;2023-03-23T05:31:13;3.30;;;2.08;;
15814;SDS011;8008;50.024;8.172;2023-03-23T05:33:41;3.38;;;2.08;;
15814;SDS011;8008;50.024;8.172;2023-03-23T05:36:21;2.70;;;1.90;;
15814;SDS011;8008;50.024;8.172;2023-03-23T05:39:06;3.70;;;1.92;;
15814;SDS011;8008;50.024;8.172;2023-03-23T05:41:54;5.78;;;2.10;;
15814;SDS011;8008;50.024;8.172;2023-03-23T05:44:25;4.68;;;2.10;;
15814;SDS011;8008;50.024;8.172;2023-03-23T05:46:56;2.33;;;2.03;;
15814;SDS011;8008;50.024;8.172;2023-03-23T05:49:24;3.40;;;1.90;;
15814;SDS011;8008;50.024;8.172;2023-03-23T05:51:53;2.03;;;1.67;;
15814;SDS011;8008;50.024;8.172;2023-03-23T05:54:20;1.92;;;1.60;;
15814;SDS011;8008;50.024;8.172;2023-03-23T05:56:48;2.95;;;1.92;;
15814;SDS011;8008;50.024;8.172;2023-03-23T05:59:23;3.00;;;1.77;;
15814;SDS011;8008;50.024;8.172;2023-03-23T06:01:53;3.58;;;2.08;;
15814;SDS011;8008;50.024;8.172;2023-03-23T06:04:20;2.83;;;1.70;;
15814;SDS011;8008;50.024;8.172;2023-03-23T06:07:02;1.98;;;1.77;;
15814;SDS011;8008;50.024;8.172;2023-03-23T06:09:29;2.25;;;1.98;;
15814;SDS011;8008;50.024;8.172;2023-03-23T06:12:03;3.28;;;1.88;;
15814;SDS011;8008;50.024;8.172;2023-03-23T06:14:56;2.67;;;2.08;;
15814;SDS011;8008;50.024;8.172;2023-03-23T06:17:39;2.25;;;1.58;;
15814;SDS011;8008;50.024;8.172;2023-03-23T06:20:09;2.15;;;1.90;;
15814;SDS011;8008;50.024;8.172;2023-03-23T06:22:40;2.40;;;1.83;;
15814;SDS011;8008;50.024;8.172;2023-03-23T06:25:25;2.17;;;1.85;;
15814;SDS011;8008;50.024;8.172;2023-03-23T06:27:53;2.17;;;1.90;;
15814;SDS011;8008;50.024;8.172;2023-03-23T06:30:23;2.83;;;2.10;;
15814;SDS011;8008;50.024;8.172;2023-03-23T06:32:53;3.20;;;2.55;;
15814;SDS011;8008;50.024;8.172;2023-03-23T06:35:41;3.78;;;1.80;;
15814;SDS011;8008;50.024;8.172;2023-03-23T06:38:42;2.97;;;1.63;;
15814;SDS011;8008;50.024;8.172;2023-03-23T06:41:10;2.28;;;1.60;;
15814;SDS011;8008;50.024;8.172;2023-03-23T06:43:38;1.75;;;1.65;;
15814;SDS011;8008;50.024;8.172;2023-03-23T06:46:20;2.03;;;1.50;;
15814;SDS011;8008;50.024;8.172;2023-03-23T06:48:53;1.90;;;1.70;;
15814;SDS011;8008;50.024;8.172;2023-03-23T06:51:32;1.92;;;1.70;;
15814;SDS011;8008;50.024;8.172;2023-03-23T06:54:01;2.67;;;1.60;;
15814;SDS011;8008;50.024;8.172;2023-03-23T06:56:31;2.40;;;1.55;;
15814;SDS011;8008;50.024;8.172;2023-03-23T06:58:58;2.72;;;1.52;;
15814;SDS011;8008;50.024;8.172;2023-03-23T07:01:25;2.88;;;1.60;;
15814;SDS011;8008;50.024;8.172;2023-03-23T07:03:57;2.28;;;1.88;;
15814;SDS011;8008;50.024;8.172;2023-03-23T07:06:54;2.60;;;1.67;;
15814;SDS011;8008;50.024;8.172;2023-03-23T07:09:23;2.97;;;1.75;;
15814;SDS011;8008;50.024;8.172;2023-03-23T07:11:50;2.25;;;1.75;;
15814;SDS011;8008;50.024;8.172;2023-03-23T07:14:28;2.42;;;1.90;;
15814;SDS011;8008;50.024;8.172;2023-03-23T07:16:56;3.25;;;1.90;;
15814;SDS011;8008;50.024;8.172;2023-03-23T07:19:24;4.20;;;2.00;;
15814;SDS011;8008;50.024;8.172;2023-03-23T07:21:53;2.58;;;1.70;;
15814;SDS011;8008;50.024;8.172;2023-03-23T07:24:23;2.90;;;2.00;;
15814;SDS011;8008;50.024;8.172;2023-03-23T07:27:13;2.72;;;1.90;;
15814;SDS011;8008;50.024;8.172;2023-03-23T07:29:40;2.28;;;1.90;;
15814;SDS011;8008;50.024;8.172;2023-03-23T07:32:14;4.55;;;2.00;;
15814;SDS011;8008;50.024;8.172;2023-03-23T07:34:42;3.65;;;2.30;;
15814;SDS011;8008;50.024;8.172;2023-03-23T07:37:24;2.03;;;1.92;;
15814;SDS011;8008;50.024;8.172;2023-03-23T07:39:52;2.08;;;1.90;;
15814;SDS011;8008;50.024;8.172;2023-03-23T07:42:20;3.22;;;2.03;;
15814;SDS011;8008;50.024;8.172;2023-03-23T07:44:53;3.15;;;2.10;;
15814;SDS011;8008;50.024;8.172;2023-03-23T07:47:20;2.90;;;2.05;;
15814;SDS011;8008;50.024;8.172;2023-03-23T07:49:48;2.38;;;2.00;;
15814;SDS011;8008;50.024;8.172;2023-03-23T07:52:22;2.63;;;1.98;;
15814;SDS011;8008;50.024;8.172;2023-03-23T07:54:50;3.10;;;1.70;;
15814;SDS011;8008;50.024;8.172;2023-03-23T07:57:36;1.95;;;1.80;;
15814;SDS011;8008;50.024;8.172;2023-03-23T08:00:04;2.50;;;2.10;;
15814;SDS011;8008;50.024;8.172;2023-03-23T08:02:40;4.15;;;1.90;;
15814;SDS011;8008;50.024;8.172;2023-03-23T08:05:31;2.75;;;1.60;;
15814;SDS011;8008;50.024;8.172;2023-03-23T08:08:14;1.98;;;1.83;;
15814;SDS011;8008;50.024;8.172;2023-03-23T08:11:00;2.10;;;1.90;;
15814;SDS011;8008;50.024;8.172;2023-03-23T08:13:48;1.85;;;1.70;;
15814;SDS011;8008;50.024;8.172;2023-03-23T08:16:30;1.80;;;1.70;;
15814;SDS011;8008;50.024;8.172;2023-03-23T08:19:18;4.43;;;2.00;;
15814;SDS011;8008;50.024;8.172;2023-03-23T08:22:04;1.98;;;1.88;;
15814;SDS011;8008;50.024;8.172;2023-03-23T08:24:56;1.67;;;1.58;;
15814;SDS011;8008;50.024;8.172;2023-03-23T08:27:37;2.20;;;1.98;;
15814;SDS011;8008;50.024;8.172;2023-03-23T08:30:30;1.95;;;1.75;;
15814;SDS011;8008;50.024;8.172;2023-03-23T08:33:25;2.13;;;1.60;;
15814;SDS011;8008;50.024;8.172;2023-03-23T08:36:11;2.75;;;1.80;;
15814;SDS011;8008;50.024;8.172;2023-03-23T08:38:58;1.67;;;1.58;;
15814;SDS011;8008;50.024;8.172;2023-03-23T08:41:47;2.22;;;1.60;;
15814;SDS011;8008;50.024;8.172;2023-03-23T08:44:20;2.20;;;1.95;;
15814;SDS011;8008;50.024;8.172;2023-03-23T08:47:11;1.95;;;1.50;;
15814;SDS011;8008;50.024;8.172;2023-03-23T08:50:06;1.98;;;1.70;;
15814;SDS011;8008;50.024;8.172;2023-03-23T08:52:53;1.67;;;1.42;;
15814;SDS011;8008;50.024;8.172;2023-03-23T08:55:39;1.50;;;1.40;;
15814;SDS011;8008;50.024;8.172;2023-03-23T08:58:31;1.33;;;1.23;;
15814;SDS011;8008;50.024;8.172;2023-03-23T09:01:08;1.73;;;1.60;;
15814;SDS011;8008;50.024;8.172;2023-03-23T09:03:43;2.55;;;1.48;;
15814;SDS011;8008;50.024;8.172;2023-03-23T09:06:29;2.40;;;1.30;;
15814;SDS011;8008;50.024;8.172;2023-03-23T09:08:58;1.90;;;1.48;;
15814;SDS011;8008;50.024;8.172;2023-03-23T09:11:26;1.73;;;1.35;;
15814;SDS011;8008;50.024;8.172;2023-03-23T09:13:52;1.83;;;1.40;;
15814;SDS011;8008;50.024;8.172;2023-03-23T09:16:20;3.65;;;1.17;;
15814;SDS011;8008;50.024;8.172;2023-03-23T09:18:48;1.30;;;1.20;;
15814;SDS011;8008;50.024;8.172;2023-03-23T09:21:15;1.65;;;1.00;;
15814;SDS011;8008;50.024;8.172;2023-03-23T09:23:42;1.02;;;0.95;;
15814;SDS011;8008;50.024;8.172;2023-03-23T09:26:10;0.80;;;0.80;;
15814;SDS011;8008;50.024;8.172;2023-03-23T09:28:37;1.08;;;0.98;;
15814;SDS011;8008;50.024;8.172;2023-03-23T09:31:04;0.80;;;0.80;;
15814;SDS011;8008;50.024;8.172;2023-03-23T09:33:31;1.08;;;0.85;;
15814;SDS011;8008;50.024;8.172;2023-03-23T09:36:03;1.10;;;1.00;;
15814;SDS011;8008;50.024;8.172;2023-03-23T09:38:32;1.20;;;1.10;;
15814;SDS011;8008;50.024;8.172;2023-03-23T09:41:01;2.50;;;1.05;;
15814;SDS011;8008;50.024;8.172;2023-03-23T09:43:45;1.02;;;0.77;;
15814;SDS011;8008;50.024;8.172;2023-03-23T09:46:34;1.08;;;0.93;;
15814;SDS011;8008;50.024;8.172;2023-03-23T09:49:10;2.50;;;1.00;;
15814;SDS011;8008;50.024;8.172;2023-03-23T09:51:44;1.20;;;0.90;;
15814;SDS011;8008;50.024;8.172;2023-03-23T09:54:19;1.13;;;1.00;;
15814;SDS011;8008;50.024;8.172;2023-03-23T09:56:49;1.40;;;0.85;;
15814;SDS011;8008;50.024;8.172;2023-03-23T09:59:19;1.77;;;0.80;;
15814;SDS011;8008;50.024;8.172;2023-03-23T10:01:50;1.17;;;0.73;;
15814;SDS011;8008;50.024;8.172;2023-03-23T10:04:25;1.58;;;0.90;;
15814;SDS011;8008;50.024;8.172;2023-03-23T10:07:08;3.63;;;1.00;;
15814;SDS011;8008;50.024;8.172;2023-03-23T10:09:39;2.05;;;1.20;;
15814;SDS011;8008;50.024;8.172;2023-03-23T10:12:14;0.98;;;0.90;;
15814;SDS011;8008;50.024;8.172;2023-03-23T10:14:50;1.10;;;1.00;;
15814;SDS011;8008;50.024;8.172;2023-03-23T10:17:42;1.73;;;0.82;;
15814;SDS011;8008;50.024;8.172;2023-03-23T10:26:03;1.08;;;1.00;;
15814;SDS011;8008;50.024;8.172;2023-03-23T10:28:35;0.80;;;0.80;;
15814;SDS011;8008;50.024;8.172;2023-03-23T10:31:04;1.02;;;0.88;;
15814;SDS011;8008;50.024;8.172;2023-03-23T10:33:37;1.13;;;1.02;;
15814;SDS011;8008;50.024;8.172;2023-03-23T10:36:10;1.08;;;0.75;;
15814;SDS011;8008;50.024;8.172;2023-03-23T10:38:45;1.35;;;0.80;;
15814;SDS011;8008;50.024;8.172;2023-03-23T10:41:16;1.02;;;0.85;;
15814;SDS011;8008;50.024;8.172;2023-03-23T10:43:44;2.42;;;1.05;;
15814;SDS011;8008;50.024;8.172;2023-03-23T10:46:18;1.48;;;0.98;;
15814;SDS011;8008;50.024;8.172;2023-03-23T10:48:52;0.80;;;0.63;;
15814;SDS011;8008;50.024;8.172;2023-03-23T10:51:23;0.80;;;0.80;;
15814;SDS011;8008;50.024;8.172;2023-03-23T10:53:58;0.85;;;0.77;;
15814;SDS011;8008;50.024;8.172;2023-03-23T10:56:27;0.90;;;0.90;;
15814;SDS011;8008;50.024;8.172;2023-03-23T10:59:10;1.33;;;1.00;;
15814;SDS011;8008;50.024;8.172;2023-03-23T11:01:38;0.90;;;0.90;;
15814;SDS011;8008;50.024;8.172;2023-03-23T11:04:10;1.20;;;1.00;;
15814;SDS011;8008;50.024;8.172;2023-03-23T11:06:43;1.98;;;1.20;;
15814;SDS011;8008;50.024;8.172;2023-03-23T11:09:13;1.55;;;0.88;;
15814;SDS011;8008;50.024;8.172;2023-03-23T11:11:43;1.02;;;1.02;;
15814;SDS011;8008;50.024;8.172;2023-03-23T11:14:17;0.95;;;0.95;;
15814;SDS011;8008;50.024;8.172;2023-03-23T11:16:46;0.80;;;0.80;;
15814;SDS011;8008;50.024;8.172;2023-03-23T11:19:21;1.20;;;1.10;;
15814;SDS011;8008;50.024;8.172;2023-03-23T11:21:50;1.45;;;1.20;;
15814;SDS011;8008;50.024;8.172;2023-03-23T11:24:22;1.58;;;1.20;;
15814;SDS011;8008;50.024;8.172;2023-03-23T11:26:49;0.93;;;0.93;;
15814;SDS011;8008;50.024;8.172;2023-03-23T11:29:18;1.05;;;1.05;;
15814;SDS011;8008;50.024;8.172;2023-03-23T11:31:50;0.93;;;0.90;;
15814;SDS011;8008;50.024;8.172;2023-03-23T11:34:21;1.10;;;1.00;;
15814;SDS011;8008;50.024;8.172;2023-03-23T11:36:52;2.15;;;0.93;;
15814;SDS011;8008;50.024;8.172;2023-03-23T11:39:23;1.55;;;0.80;;
15814;SDS011;8008;50.024;8.172;2023-03-23T11:41:51;0.90;;;0.90;;
15814;SDS011;8008;50.024;8.172;2023-03-23T11:44:20;0.82;;;0.70;;
15814;SDS011;8008;50.024;8.172;2023-03-23T11:46:50;0.60;;;0.60;;
15814;SDS011;8008;50.024;8.172;2023-03-23T11:49:27;0.70;;;0.70;;
15814;SDS011;8008;50.024;8.172;2023-03-23T11:52:14;0.70;;;0.70;;
15814;SDS011;8008;50.024;8.172;2023-03-23T11:54:50;0.70;;;0.70;;
15814;SDS011;8008;50.024;8.172;2023-03-23T11:57:22;0.70;;;0.70;;
15814;SDS011;8008;50.024;8.172;2023-03-23T11:59:49;0.82;;;0.80;;
15814;SDS011;8008;50.024;8.172;2023-03-23T12:02:24;1.00;;;0.90;;
15814;SDS011;8008;50.024;8.172;2023-03-23T12:08:00;0.95;;;0.80;;
15814;SDS011;8008;50.024;8.172;2023-03-23T12:10:45;1.30;;;1.05;;
15814;SDS011;8008;50.024;8.172;2023-03-23T12:13:30;1.65;;;1.08;;
15814;SDS011;8008;50.024;8.172;2023-03-23T12:16:18;1.30;;;1.13;;
15814;SDS011;8008;50.024;8.172;2023-03-23T12:18:52;1.10;;;0.93;;
15814;SDS011;8008;50.024;8.172;2023-03-23T12:21:26;1.35;;;0.90;;
15814;SDS011;8008;50.024;8.172;2023-03-23T12:24:03;0.95;;;0.95;;
15814;SDS011;8008;50.024;8.172;2023-03-23T12:26:39;2.83;;;1.20;;
15814;SDS011;8008;50.024;8.172;2023-03-23T12:29:19;0.95;;;0.80;;
15814;SDS011;8008;50.024;8.172;2023-03-23T12:32:08;0.80;;;0.80;;
15814;SDS011;8008;50.024;8.172;2023-03-23T12:34:58;1.20;;;1.00;;
15814;SDS011;8008;50.024;8.172;2023-03-23T12:37:40;1.33;;;1.20;;
15814;SDS011;8008;50.024;8.172;2023-03-23T12:40:21;1.30;;;1.00;;
15814;SDS011;8008;50.024;8.172;2023-03-23T12:43:01;1.60;;;0.80;;
15814;SDS011;8008;50.024;8.172;2023-03-23T12:45:43;0.93;;;0.88;;
15814;SDS011;8008;50.024;8.172;2023-03-23T12:48:26;1.40;;;1.08;;
15814;SDS011;8008;50.024;8.172;2023-03-23T12:51:03;0.98;;;0.88;;
15814;SDS011;8008;50.024;8.172;2023-03-23T12:53:38;1.90;;;0.90;;
15814;SDS011;8008;50.024;8.172;2023-03-23T12:56:12;0.70;;;0.70;;
15814;SDS011;8008;50.024;8.172;2023-03-23T12:58:45;1.77;;;1.00;;
15814;SDS011;8008;50.024;8.172;2023-03-23T13:01:16;0.93;;;0.93;;
15814;SDS011;8008;50.024;8.172;2023-03-23T13:03:49;2.60;;;1.00;;
15814;SDS011;8008;50.024;8.172;2023-03-23T13:06:23;1.08;;;0.98;;
15814;SDS011;8008;50.024;8.172;2023-03-23T13:08:55;1.20;;;1.10;;
15814;SDS011;8008;50.024;8.172;2023-03-23T13:11:27;1.13;;;1.02;;
15814;SDS011;8008;50.024;8.172;2023-03-23T13:14:01;1.63;;;1.08;;
15814;SDS011;8008;50.024;8.172;2023-03-23T13:16:43;1.77;;;1.30;;
15814;SDS011;8008;50.024;8.172;2023-03-23T13:19:20;2.03;;;1.17;;
15814;SDS011;8008;50.024;8.172;2023-03-23T13:21:53;1.25;;;0.80;;
15814;SDS011;8008;50.024;8.172;2023-03-23T13:24:29;1.05;;;0.95;;
15814;SDS011;8008;50.024;8.172;2023-03-23T13:26:59;1.67;;;0.95;;
15814;SDS011;8008;50.024;8.172;2023-03-23T13:29:28;0.93;;;0.90;;
15814;SDS011;8008;50.024;8.172;2023-03-23T13:32:04;0.73;;;0.73;;
15814;SDS011;8008;50.024;8.172;2023-03-23T13:34:34;1.05;;;0.90;;
15814;SDS011;8008;50.024;8.172;2023-03-23T13:37:02;2.17;;;0.98;;
15814;SDS011;8008;50.024;8.172;2023-03-23T13:39:33;1.75;;;1.10;;
15814;SDS011;8008;50.024;8.172;2023-03-23T13:42:05;1.35;;;1.10;;
15814;SDS011;8008;50.024;8.172;2023-03-23T13:44:56;1.00;;;0.90;;
15814;SDS011;8008;50.024;8.172;2023-03-23T13:47:36;1.00;;;0.90;;
15814;SDS011;8008;50.024;8.172;2023-03-23T13:50:09;1.17;;;1.10;;
15814;SDS011;8008;50.024;8.172;2023-03-23T13:52:38;1.52;;;1.20;;
15814;SDS011;8008;50.024;8.172;2023-03-23T13:55:20;3.60;;;1.30;;
15814;SDS011;8008;50.024;8.172;2023-03-23T13:57:56;1.13;;;1.00;;
15814;SDS011;8008;50.024;8.172;2023-03-23T14:00:31;1.65;;;1.17;;
15814;SDS011;8008;50.024;8.172;2023-03-23T14:03:09;1.40;;;1.30;;
15814;SDS011;8008;50.024;8.172;2023-03-23T14:05:39;1.65;;;1.17;;
15814;SDS011;8008;50.024;8.172;2023-03-23T14:08:12;1.30;;;1.20;;
15814;SDS011;8008;50.024;8.172;2023-03-23T14:10:48;1.20;;;1.10;;
15814;SDS011;8008;50.024;8.172;2023-03-23T14:13:20;2.50;;;1.30;;
15814;SDS011;8008;50.024;8.172;2023-03-23T14:15:58;1.23;;;1.00;;
15814;SDS011;8008;50.024;8.172;2023-03-23T14:18:30;1.10;;;0.90;;
15814;SDS011;8008;50.024;8.172;2023-03-23T14:21:00;1.88;;;0.93;;
15814;SDS011;8008;50.024;8.172;2023-03-23T14:23:30;2.47;;;1.13;;
15814;SDS011;8008;50.024;8.172;2023-03-23T14:25:59;3.05;;;1.10;;
15814;SDS011;8008;50.024;8.172;2023-03-23T14:28:35;1.95;;;1.38;;
15814;SDS011;8008;50.024;8.172;2023-03-23T14:31:05;1.55;;;1.33;;
15814;SDS011;8008;50.024;8.172;2023-03-23T14:33:41;1.70;;;1.60;;
15814;SDS011;8008;50.024;8.172;2023-03-23T14:36:08;1.20;;;1.10;;
15814;SDS011;8008;50.024;8.172;2023-03-23T14:38:35;1.45;;;1.35;;
15814;SDS011;8008;50.024;8.172;2023-03-23T14:41:04;1.42;;;1.20;;
15814;SDS011;8008;50.024;8.172;2023-03-23T14:43:32;2.00;;;1.17;;
15814;SDS011;8008;50.024;8.172;2023-03-23T14:46:02;1.30;;;1.15;;
15814;SDS011;8008;50.024;8.172;2023-03-23T14:48:35;1.45;;;1.20;;
15814;SDS011;8008;50.024;8.172;2023-03-23T14:51:04;2.15;;;1.25;;
15814;SDS011;8008;50.024;8.172;2023-03-23T14:53:33;1.65;;;1.17;;
15814;SDS011;8008;50.024;8.172;2023-03-23T14:56:03;1.45;;;1.33;;
15814;SDS011;8008;50.024;8.172;2023-03-23T14:58:35;1.20;;;1.13;;
15814;SDS011;8008;50.024;8.172;2023-03-23T15:01:03;1.30;;;1.20;;
15814;SDS011;8008;50.024;8.172;2023-03-23T15:03:34;1.42;;;1.20;;
15814;SDS011;8008;50.024;8.172;2023-03-23T15:06:04;1.33;;;1.20;;
15814;SDS011;8008;50.024;8.172;2023-03-23T15:08:38;1.35;;;1.25;;
15814;SDS011;8008;50.024;8.172;2023-03-23T15:11:07;1.45;;;1.35;;
15814;SDS011;8008;50.024;8.172;2023-03-23T15:13:42;1.55;;;1.40;;
15814;SDS011;8008;50.024;8.172;2023-03-23T15:16:14;2.05;;;1.33;;
15814;SDS011;8008;50.024;8.172;2023-03-23T15:18:47;2.05;;;1.40;;
15814;SDS011;8008;50.024;8.172;2023-03-23T15:21:19;2.08;;;1.30;;
15814;SDS011;8008;50.024;8.172;2023-03-23T15:23:50;1.65;;;1.40;;
15814;SDS011;8008;50.024;8.172;2023-03-23T15:26:21;2.03;;;1.40;;
15814;SDS011;8008;50.024;8.172;2023-03-23T15:28:58;1.63;;;1.52;;
15814;SDS011;8008;50.024;8.172;2023-03-23T15:31:29;1.60;;;1.15;;
15814;SDS011;8008;50.024;8.172;2023-03-23T15:33:59;1.30;;;1.20;;
15814;SDS011;8008;50.024;8.172;2023-03-23T15:36:31;2.58;;;1.40;;
15814;SDS011;8008;50.024;8.172;2023-03-23T15:39:00;1.17;;;1.08;;
15814;SDS011;8008;50.024;8.172;2023-03-23T15:41:28;1.67;;;1.20;;
15814;SDS011;8008;50.024;8.172;2023-03-23T15:43:58;1.45;;;1.35;;
15814;SDS011;8008;50.024;8.172;2023-03-23T15:46:48;1.45;;;1.10;;
15814;SDS011;8008;50.024;8.172;2023-03-23T15:49:16;2.15;;;1.30;;
15814;SDS011;8008;50.024;8.172;2023-03-23T15:51:43;1.30;;;1.20;;
15814;SDS011;8008;50.024;8.172;2023-03-23T15:54:12;1.50;;;1.10;;
15814;SDS011;8008;50.024;8.172;2023-03-23T15:56:40;1.40;;;1.30;;
15814;SDS011;8008;50.024;8.172;2023-03-23T15:59:09;1.30;;;1.25;;
15814;SDS011;8008;50.024;8.172;2023-03-23T16:01:38;2.60;;;1.20;;
15814;SDS011;8008;50.024;8.172;2023-03-23T16:04:10;1.42;;;1.30;;
15814;SDS011;8008;50.024;8.172;2023-03-23T16:06:40;1.30;;;1.20;;
15814;SDS011;8008;50.024;8.172;2023-03-23T16:09:12;1.27;;;1.17;;
15814;SDS011;8008;50.024;8.172;2023-03-23T16:11:41;1.77;;;1.38;;
15814;SDS011;8008;50.024;8.172;2023-03-23T16:17:02;1.17;;;1.00;;
15814;SDS011;8008;50.024;8.172;2023-03-23T16:19:32;1.10;;;0.95;;
15814;SDS011;8008;50.024;8.172;2023-03-23T16:22:00;1.25;;;1.05;;
15814;SDS011;8008;50.024;8.172;2023-03-23T16:24:27;1.60;;;1.10;;
15814;SDS011;8008;50.024;8.172;2023-03-23T16:26:55;1.33;;;1.10;;
15814;SDS011;8008;50.024;8.172;2023-03-23T16:29:23;1.50;;;1.40;;
15814;SDS011;8008;50.024;8.172;2023-03-23T16:32:11;3.17;;;1.30;;
15814;SDS011;8008;50.024;8.172;2023-03-23T16:34:40;1.55;;;1.40;;
15814;SDS011;8008;50.024;8.172;2023-03-23T16:37:09;2.10;;;1.38;;
15814;SDS011;8008;50.024;8.172;2023-03-23T16:39:37;1.63;;;1.38;;
15814;SDS011;8008;50.024;8.172;2023-03-23T16:42:05;1.42;;;1.30;;
15814;SDS011;8008;50.024;8.172;2023-03-23T16:44:33;1.70;;;1.45;;
15814;SDS011;8008;50.024;8.172;2023-03-23T16:47:01;2.35;;;1.50;;
15814;SDS011;8008;50.024;8.172;2023-03-23T16:49:29;2.25;;;1.40;;
15814;SDS011;8008;50.024;8.172;2023-03-23T16:51:58;1.67;;;1.30;;
15814;SDS011;8008;50.024;8.172;2023-03-23T16:54:26;1.55;;;1.38;;
15814;SDS011;8008;50.024;8.172;2023-03-23T16:56:54;1.75;;;1.50;;
15814;SDS011;8008;50.024;8.172;2023-03-23T16:59:22;1.30;;;1.20;;
15814;SDS011;8008;50.024;8.172;2023-03-23T17:01:50;2.42;;;1.42;;
15814;SDS011;8008;50.024;8.172;2023-03-23T17:04:18;2.22;;;1.40;;
15814;SDS011;8008;50.024;8.172;2023-03-23T17:06:46;2.10;;;1.25;;
15814;SDS011;8008;50.024;8.172;2023-03-23T17:09:15;2.05;;;1.40;;
15814;SDS011;8008;50.024;8.172;2023-03-23T17:11:43;1.80;;;1.48;;
15814;SDS011;8008;50.024;8.172;2023-03-23T17:14:11;1.95;;;1.50;;
15814;SDS011;8008;50.024;8.172;2023-03-23T17:16:39;1.67;;;1.58;;
15814;SDS011;8008;50.024;8.172;2023-03-23T17:19:07;1.70;;;1.60;;
15814;SDS011;8008;50.024;8.172;2023-03-23T17:21:35;3.08;;;1.48;;
15814;SDS011;8008;50.024;8.172;2023-03-23T17:24:03;2.00;;;1.70;;
15814;SDS011;8008;50.024;8.172;2023-03-23T17:26:32;1.90;;;1.50;;
15814;SDS011;8008;50.024;8.172;2023-03-23T17:29:01;2.33;;;1.48;;
15814;SDS011;8008;50.024;8.172;2023-03-23T17:31:29;1.65;;;1.50;;
15814;SDS011;8008;50.024;8.172;2023-03-23T17:33:57;1.60;;;1.50;;
15814;SDS011;8008;50.024;8.172;2023-03-23T17:36:26;1.48;;;1.27;;
15814;SDS011;8008;50.024;8.172;2023-03-23T17:38:54;1.45;;;1.35;;
15814;SDS011;8008;50.024;8.172;2023-03-23T17:41:22;2.15;;;1.52;;
15814;SDS011;8008;50.024;8.172;2023-03-23T17:43:51;1.95;;;1.63;;
15814;SDS011;8008;50.024;8.172;2023-03-23T17:46:19;4.22;;;1.60;;
15814;SDS011;8008;50.024;8.172;2023-03-23T17:48:47;2.08;;;1.35;;
15814;SDS011;8008;50.024;8.172;2023-03-23T17:51:14;2.95;;;1.67;;
15814;SDS011;8008;50.024;8.172;2023-03-23T17:53:42;1.70;;;1.60;;
15814;SDS011;8008;50.024;8.172;2023-03-23T17:56:10;3.53;;;2.50;;
15814;SDS011;8008;50.024;8.172;2023-03-23T17:58:38;2.17;;;1.75;;
15814;SDS011;8008;50.024;8.172;2023-03-23T18:01:07;3.10;;;2.42;;
15814;SDS011;8008;50.024;8.172;2023-03-23T18:03:35;3.30;;;2.30;;
15814;SDS011;8008;50.024;8.172;2023-03-23T18:06:04;2.30;;;2.00;;
15814;SDS011;8008;50.024;8.172;2023-03-23T18:08:33;2.92;;;2.50;;
15814;SDS011;8008;50.024;8.172;2023-03-23T18:11:02;2.47;;;2.00;;
15814;SDS011;8008;50.024;8.172;2023-03-23T18:13:31;1.73;;;1.63;;
15814;SDS011;8008;50.024;8.172;2023-03-23T18:16:01;3.05;;;1.60;;
15814;SDS011;8008;50.024;8.172;2023-03-23T18:18:31;2.40;;;1.80;;
15814;SDS011;8008;50.024;8.172;2023-03-23T18:21:00;2.28;;;1.70;;
15814;SDS011;8008;50.024;8.172;2023-03-23T18:23:29;1.80;;;1.70;;
15814;SDS011;8008;50.024;8.172;2023-03-23T18:26:09;4.10;;;1.92;;
15814;SDS011;8008;50.024;8.172;2023-03-23T18:28:38;3.50;;;2.20;;
15814;SDS011;8008;50.024;8.172;2023-03-23T18:31:07;1.50;;;1.40;;
15814;SDS011;8008;50.024;8.172;2023-03-23T18:33:38;3.33;;;1.90;;
15814;SDS011;8008;50.024;8.172;2023-03-23T18:36:08;4.20;;;1.90;;
15814;SDS011;8008;50.024;8.172;2023-03-23T18:38:36;2.97;;;2.00;;
15814;SDS011;8008;50.024;8.172;2023-03-23T18:41:05;2.53;;;1.90;;
15814;SDS011;8008;50.024;8.172;2023-03-23T18:43:33;4.20;;;2.20;;
15814;SDS011;8008;50.024;8.172;2023-03-23T18:46:01;2.20;;;2.00;;
15814;SDS011;8008;50.024;8.172;2023-03-23T18:48:30;3.47;;;1.88;;
15814;SDS011;8008;50.024;8.172;2023-03-23T18:51:00;3.58;;;1.70;;
15814;SDS011;8008;50.024;8.172;2023-03-23T18:53:28;2.00;;;1.80;;
15814;SDS011;8008;50.024;8.172;2023-03-23T18:56:02;3.03;;;1.70;;
15814;SDS011;8008;50.024;8.172;2023-03-23T18:58:32;2.47;;;1.88;;
15814;SDS011;8008;50.024;8.172;2023-03-23T19:01:03;4.18;;;1.80;;
15814;SDS011;8008;50.024;8.172;2023-03-23T19:03:33;3.95;;;2.05;;
15814;SDS011;8008;50.024;8.172;2023-03-23T19:06:03;3.08;;;2.40;;
15814;SDS011;8008;50.024;8.172;2023-03-23T19:08:31;4.43;;;2.85;;
15814;SDS011;8008;50.024;8.172;2023-03-23T19:11:01;3.53;;;2.20;;
15814;SDS011;8008;50.024;8.172;2023-03-23T19:13:31;2.88;;;2.42;;
15814;SDS011;8008;50.024;8.172;2023-03-23T19:16:03;5.32;;;3.38;;
15814;SDS011;8008;50.024;8.172;2023-03-23T19:18:32;5.80;;;3.70;;
15814;SDS011;8008;50.024;8.172;2023-03-23T19:21:00;4.55;;;3.00;;
15814;SDS011;8008;50.024;8.172;2023-03-23T19:23:32;3.60;;;2.60;;
15814;SDS011;8008;50.024;8.172;2023-03-23T19:26:00;2.80;;;2.03;;
15814;SDS011;8008;50.024;8.172;2023-03-23T19:28:28;2.75;;;2.10;;
15814;SDS011;8008;50.024;8.172;2023-03-23T19:31:16;2.95;;;2.15;;
15814;SDS011;8008;50.024;8.172;2023-03-23T19:33:46;4.47;;;2.30;;
15814;SDS011;8008;50.024;8.172;2023-03-23T19:36:14;3.03;;;2.25;;
15814;SDS011;8008;50.024;8.172;2023-03-23T19:38:45;2.80;;;2.17;;
15814;SDS011;8008;50.024;8.172;2023-03-23T19:41:14;2.97;;;1.92;;
15814;SDS011;8008;50.024;8.172;2023-03-23T19:43:44;3.28;;;2.30;;
15814;SDS011;8008;50.024;8.172;2023-03-23T19:46:12;2.28;;;1.90;;
15814;SDS011;8008;50.024;8.172;2023-03-23T19:48:41;3.35;;;2.50;;